<?xml version="1.0" encoding="UTF-8" standalone="no" ?>
<gpx xmlns="http://www.topografix.com/GPX/1/1" xmlns:xsi="http://www.w3.org/2001/XMLSchema-instance" xsi:schemaLocation="http://www.topografix.com/GPX/1/1 http://www.topografix.com/GPX/1/1/gpx.xsd" version="1.1" creator="VisuGPX - https://www.visugpx.com">
  <metadata>
    <name>Vouvant_MerventAutour_19-22km</name>
    <desc><![CDATA[gnerando idor:8031793_8985849_8987074_9131938]]></desc>
  </metadata>
  <trk>
    <name><![CDATA[Vouvant_Autour_19.2km-8985849]]></name>
    <extensions>
      <line xmlns="http://www.topografix.com/GPX/gpx_style/0/2">
        <color>00FF00</color>
        <width>4</width>
      </line>
    </extensions>
    <trkseg>
      <trkpt lat="46.5724" lon="-0.77087">
        <ele>68</ele>
        <time>2023-11-14T12:04:43Z</time>
      </trkpt>
      <trkpt lat="46.57264" lon="-0.77156">
        <ele>62</ele>
        <time>2023-11-14T12:05:54Z</time>
      </trkpt>
      <trkpt lat="46.57209" lon="-0.77163">
        <ele>58</ele>
        <time>2023-11-14T12:07:08Z</time>
      </trkpt>
      <trkpt lat="46.57131" lon="-0.7713">
        <ele>59</ele>
        <time>2023-11-14T12:08:56Z</time>
      </trkpt>
      <trkpt lat="46.571" lon="-0.77126">
        <ele>58</ele>
        <time>2023-11-14T12:09:38Z</time>
      </trkpt>
      <trkpt lat="46.57104" lon="-0.77198">
        <ele>55</ele>
        <time>2023-11-14T12:10:44Z</time>
      </trkpt>
      <trkpt lat="46.56979" lon="-0.77279">
        <ele>61</ele>
        <time>2023-11-14T12:13:46Z</time>
      </trkpt>
      <trkpt lat="46.56917" lon="-0.7748">
        <ele>72</ele>
        <time>2023-11-14T12:17:09Z</time>
      </trkpt>
      <trkpt lat="46.56721" lon="-0.77243">
        <ele>72</ele>
        <time>2023-11-14T12:22:49Z</time>
      </trkpt>
      <trkpt lat="46.56474" lon="-0.77249">
        <ele>67</ele>
        <time>2023-11-14T12:28:18Z</time>
      </trkpt>
      <trkpt lat="46.56295" lon="-0.77316">
        <ele>62</ele>
        <time>2023-11-14T12:32:25Z</time>
      </trkpt>
      <trkpt lat="46.56028" lon="-0.77164">
        <ele>67</ele>
        <time>2023-11-14T12:38:48Z</time>
      </trkpt>
      <trkpt lat="46.55581" lon="-0.77006">
        <ele>64</ele>
        <time>2023-11-14T12:49:01Z</time>
      </trkpt>
      <trkpt lat="46.55377" lon="-0.77231">
        <ele>74</ele>
        <time>2023-11-14T12:54:43Z</time>
      </trkpt>
      <trkpt lat="46.55122" lon="-0.77413">
        <ele>72</ele>
        <time>2023-11-14T13:01:02Z</time>
      </trkpt>
      <trkpt lat="46.5458" lon="-0.77249">
        <ele>89</ele>
        <time>2023-11-14T13:13:21Z</time>
      </trkpt>
      <trkpt lat="46.54651" lon="-0.77522">
        <ele>89</ele>
        <time>2023-11-14T13:17:49Z</time>
      </trkpt>
      <trkpt lat="46.546" lon="-0.77734">
        <ele>84</ele>
        <time>2023-11-14T13:21:15Z</time>
      </trkpt>
      <trkpt lat="46.54538" lon="-0.77935">
        <ele>78</ele>
        <time>2023-11-14T13:24:37Z</time>
      </trkpt>
      <trkpt lat="46.54592" lon="-0.78159">
        <ele>54</ele>
        <time>2023-11-14T13:28:15Z</time>
      </trkpt>
      <trkpt lat="46.54454" lon="-0.7819">
        <ele>54</ele>
        <time>2023-11-14T13:31:21Z</time>
      </trkpt>
      <trkpt lat="46.544" lon="-0.78135">
        <ele>51</ele>
        <time>2023-11-14T13:32:49Z</time>
      </trkpt>
      <trkpt lat="46.544" lon="-0.78008">
        <ele>53</ele>
        <time>2023-11-14T13:34:46Z</time>
      </trkpt>
      <trkpt lat="46.54438" lon="-0.77558">
        <ele>54</ele>
        <time>2023-11-14T13:41:42Z</time>
      </trkpt>
      <trkpt lat="46.5435" lon="-0.77449">
        <ele>57</ele>
        <time>2023-11-14T13:44:16Z</time>
      </trkpt>
      <trkpt lat="46.54271" lon="-0.77358">
        <ele>78</ele>
        <time>2023-11-14T13:46:31Z</time>
      </trkpt>
      <trkpt lat="46.54225" lon="-0.77237">
        <ele>100</ele>
        <time>2023-11-14T13:48:38Z</time>
      </trkpt>
      <trkpt lat="46.54592" lon="-0.77194">
        <ele>84</ele>
        <time>2023-11-14T13:56:49Z</time>
      </trkpt>
      <trkpt lat="46.54688" lon="-0.76496">
        <ele>81</ele>
        <time>2023-11-14T14:07:42Z</time>
      </trkpt>
      <trkpt lat="46.54797" lon="-0.76521">
        <ele>79</ele>
        <time>2023-11-14T14:10:10Z</time>
      </trkpt>
      <trkpt lat="46.54876" lon="-0.76199">
        <ele>85</ele>
        <time>2023-11-14T14:15:23Z</time>
      </trkpt>
      <trkpt lat="46.5503" lon="-0.75902">
        <ele>73</ele>
        <time>2023-11-14T14:21:05Z</time>
      </trkpt>
      <trkpt lat="46.55118" lon="-0.75823">
        <ele>73</ele>
        <time>2023-11-14T14:23:23Z</time>
      </trkpt>
      <trkpt lat="46.55097" lon="-0.75695">
        <ele>72</ele>
        <time>2023-11-14T14:25:24Z</time>
      </trkpt>
      <trkpt lat="46.55214" lon="-0.75513">
        <ele>77</ele>
        <time>2023-11-14T14:29:12Z</time>
      </trkpt>
      <trkpt lat="46.55377" lon="-0.75495">
        <ele>77</ele>
        <time>2023-11-14T14:32:50Z</time>
      </trkpt>
      <trkpt lat="46.55423" lon="-0.75307">
        <ele>79</ele>
        <time>2023-11-14T14:35:53Z</time>
      </trkpt>
      <trkpt lat="46.55231" lon="-0.75313">
        <ele>77</ele>
        <time>2023-11-14T14:40:10Z</time>
      </trkpt>
      <trkpt lat="46.55101" lon="-0.75204">
        <ele>78</ele>
        <time>2023-11-14T14:43:30Z</time>
      </trkpt>
      <trkpt lat="46.5516" lon="-0.74694">
        <ele>65</ele>
        <time>2023-11-14T14:51:25Z</time>
      </trkpt>
      <trkpt lat="46.55377" lon="-0.74524">
        <ele>65</ele>
        <time>2023-11-14T14:56:53Z</time>
      </trkpt>
      <trkpt lat="46.55331" lon="-0.74463">
        <ele>62</ele>
        <time>2023-11-14T14:58:17Z</time>
      </trkpt>
      <trkpt lat="46.55439" lon="-0.74324">
        <ele>68</ele>
        <time>2023-11-14T15:01:29Z</time>
      </trkpt>
      <trkpt lat="46.55427" lon="-0.74226">
        <ele>66</ele>
        <time>2023-11-14T15:03:00Z</time>
      </trkpt>
      <trkpt lat="46.55581" lon="-0.74123">
        <ele>72</ele>
        <time>2023-11-14T15:06:47Z</time>
      </trkpt>
      <trkpt lat="46.55506" lon="-0.74008">
        <ele>71</ele>
        <time>2023-11-14T15:09:12Z</time>
      </trkpt>
      <trkpt lat="46.55519" lon="-0.73753">
        <ele>78</ele>
        <time>2023-11-14T15:13:07Z</time>
      </trkpt>
      <trkpt lat="46.55773" lon="-0.73334">
        <ele>87</ele>
        <time>2023-11-14T15:21:39Z</time>
      </trkpt>
      <trkpt lat="46.55944" lon="-0.73013">
        <ele>89</ele>
        <time>2023-11-14T15:27:52Z</time>
      </trkpt>
      <trkpt lat="46.56166" lon="-0.73274">
        <ele>80</ele>
        <time>2023-11-14T15:34:13Z</time>
      </trkpt>
      <trkpt lat="46.56579" lon="-0.73037">
        <ele>97</ele>
        <time>2023-11-14T15:44:05Z</time>
      </trkpt>
      <trkpt lat="46.56733" lon="-0.73025">
        <ele>96</ele>
        <time>2023-11-14T15:47:31Z</time>
      </trkpt>
      <trkpt lat="46.56996" lon="-0.72891">
        <ele>102</ele>
        <time>2023-11-14T15:53:43Z</time>
      </trkpt>
      <trkpt lat="46.57159" lon="-0.728">
        <ele>99</ele>
        <time>2023-11-14T15:57:36Z</time>
      </trkpt>
      <trkpt lat="46.57313" lon="-0.72685">
        <ele>89</ele>
        <time>2023-11-14T16:01:27Z</time>
      </trkpt>
      <trkpt lat="46.57434" lon="-0.73067">
        <ele>82</ele>
        <time>2023-11-14T16:07:53Z</time>
      </trkpt>
      <trkpt lat="46.57171" lon="-0.73255">
        <ele>94</ele>
        <time>2023-11-14T16:14:24Z</time>
      </trkpt>
      <trkpt lat="46.5725" lon="-0.73844">
        <ele>92</ele>
        <time>2023-11-14T16:23:34Z</time>
      </trkpt>
      <trkpt lat="46.57321" lon="-0.747">
        <ele>85</ele>
        <time>2023-11-14T16:36:45Z</time>
      </trkpt>
      <trkpt lat="46.5738" lon="-0.75082">
        <ele>79</ele>
        <time>2023-11-14T16:42:44Z</time>
      </trkpt>
      <trkpt lat="46.57484" lon="-0.75762">
        <ele>83</ele>
        <time>2023-11-14T16:53:23Z</time>
      </trkpt>
      <trkpt lat="46.57313" lon="-0.76193">
        <ele>78</ele>
        <time>2023-11-14T17:01:00Z</time>
      </trkpt>
      <trkpt lat="46.57217" lon="-0.76545">
        <ele>61</ele>
        <time>2023-11-14T17:06:47Z</time>
      </trkpt>
      <trkpt lat="46.57159" lon="-0.7683">
        <ele>63</ele>
        <time>2023-11-14T17:11:20Z</time>
      </trkpt>
      <trkpt lat="46.57238" lon="-0.76982">
        <ele>71</ele>
        <time>2023-11-14T17:14:15Z</time>
      </trkpt>
      <trkpt lat="46.57367" lon="-0.77049">
        <ele>65</ele>
        <time>2023-11-14T17:17:18Z</time>
      </trkpt>
      <trkpt lat="46.57451" lon="-0.77237">
        <ele>60</ele>
        <time>2023-11-14T17:20:43Z</time>
      </trkpt>
      <trkpt lat="46.57705" lon="-0.77413">
        <ele>60</ele>
        <time>2023-11-14T17:26:59Z</time>
      </trkpt>
      <trkpt lat="46.57797" lon="-0.77759">
        <ele>69</ele>
        <time>2023-11-14T17:32:39Z</time>
      </trkpt>
      <trkpt lat="46.57809" lon="-0.77947">
        <ele>77</ele>
        <time>2023-11-14T17:35:32Z</time>
      </trkpt>
      <trkpt lat="46.58006" lon="-0.78171">
        <ele>81</ele>
        <time>2023-11-14T17:41:06Z</time>
      </trkpt>
      <trkpt lat="46.58185" lon="-0.78287">
        <ele>83</ele>
        <time>2023-11-14T17:45:27Z</time>
      </trkpt>
      <trkpt lat="46.58247" lon="-0.78038">
        <ele>85</ele>
        <time>2023-11-14T17:49:30Z</time>
      </trkpt>
      <trkpt lat="46.5826" lon="-0.77832">
        <ele>80</ele>
        <time>2023-11-14T17:52:40Z</time>
      </trkpt>
      <trkpt lat="46.58306" lon="-0.77704">
        <ele>73</ele>
        <time>2023-11-14T17:54:52Z</time>
      </trkpt>
      <trkpt lat="46.58368" lon="-0.77631">
        <ele>65</ele>
        <time>2023-11-14T17:56:39Z</time>
      </trkpt>
      <trkpt lat="46.58318" lon="-0.77297">
        <ele>54</ele>
        <time>2023-11-14T18:01:52Z</time>
      </trkpt>
      <trkpt lat="46.58189" lon="-0.77304">
        <ele>55</ele>
        <time>2023-11-14T18:04:45Z</time>
      </trkpt>
      <trkpt lat="46.58051" lon="-0.77249">
        <ele>53</ele>
        <time>2023-11-14T18:07:56Z</time>
      </trkpt>
      <trkpt lat="46.57972" lon="-0.77376">
        <ele>58</ele>
        <time>2023-11-14T18:10:33Z</time>
      </trkpt>
      <trkpt lat="46.57851" lon="-0.77352">
        <ele>57</ele>
        <time>2023-11-14T18:13:16Z</time>
      </trkpt>
      <trkpt lat="46.5771" lon="-0.77433">
        <ele>61</ele>
        <time>2023-11-14T18:16:38Z</time>
      </trkpt>
      <trkpt lat="46.57594" lon="-0.77352">
        <ele>62</ele>
        <time>2023-11-14T18:19:30Z</time>
      </trkpt>
      <trkpt lat="46.5741" lon="-0.77195">
        <ele>60</ele>
        <time>2023-11-14T18:24:14Z</time>
      </trkpt>
      <trkpt lat="46.57358" lon="-0.77073">
        <ele>65</ele>
        <time>2023-11-14T18:26:26Z</time>
      </trkpt>
      <trkpt lat="46.57241" lon="-0.77076">
        <ele>69</ele>
        <time>2023-11-14T18:29:02Z</time>
      </trkpt>
    </trkseg>
  </trk>
</gpx>